Caplinger Mills, Missouri
Current Conditions -  °F | °C
As of 1:55 PM on Sunday 23 Nov 2014 (Local Time) from KGLY Reporting Station
Overcast Overcast  
Wind Chill: 57°   Ceiling: 600
Heat Index: 57°   Visibility: 8mi
Dew Point: 55°   Wind: 3mph
Humidity: 94%   Direction: 130°SE
Pressure: 29.36"   Gusts: NA
Location:  37.79°N, 93.8°W
Report Text: KGLY 231955Z AUTO 13003KT 8SM BKN006 BKN011 OVC019 14/13 A2936 RMK AO2
Loading
Personal Weather Stations






























Interactive Weather Map New forecast layout! Learn more

10-Day Weather Forecast

Advertisements
Track Severe Weather on mobile